sensor_id;sensor_type;location;lat;lon;timestamp;pressure;altitude;pressure_sealevel;temperature;humidity
21644;BME280;10983;51.982;9.226;2024-03-08T00:00:18;100536.00;;;-1.55;100.00
21644;BME280;10983;51.982;9.226;2024-03-08T00:02:47;100530.06;;;-1.48;100.00
21644;BME280;10983;51.982;9.226;2024-03-08T00:05:17;100522.75;;;-1.44;100.00
21644;BME280;10983;51.982;9.226;2024-03-08T00:07:45;100527.94;;;-1.35;100.00
21644;BME280;10983;51.982;9.226;2024-03-08T00:10:14;100519.16;;;-1.34;100.00
21644;BME280;10983;51.982;9.226;2024-03-08T00:12:44;100518.00;;;-1.22;100.00
21644;BME280;10983;51.982;9.226;2024-03-08T00:15:13;100509.47;;;-1.14;100.00
21644;BME280;10983;51.982;9.226;2024-03-08T00:17:44;100504.97;;;-1.22;100.00
21644;BME280;10983;51.982;9.226;2024-03-08T00:20:12;100509.03;;;-1.37;100.00
21644;BME280;10983;51.982;9.226;2024-03-08T00:22:41;100501.66;;;-1.51;100.00
21644;BME280;10983;51.982;9.226;2024-03-08T00:25:10;100501.28;;;-1.56;100.00
21644;BME280;10983;51.982;9.226;2024-03-08T00:27:39;100498.72;;;-1.65;100.00
21644;BME280;10983;51.982;9.226;2024-03-08T00:30:08;100504.91;;;-1.66;100.00
21644;BME280;10983;51.982;9.226;2024-03-08T00:32:35;100503.00;;;-1.73;100.00
21644;BME280;10983;51.982;9.226;2024-03-08T00:35:04;100502.72;;;-1.80;100.00
21644;BME280;10983;51.982;9.226;2024-03-08T00:37:33;100475.66;;;-1.96;100.00
21644;BME280;10983;51.982;9.226;2024-03-08T00:40:01;100494.81;;;-1.78;100.00
21644;BME280;10983;51.982;9.226;2024-03-08T00:42:29;100485.75;;;-1.84;100.00
21644;BME280;10983;51.982;9.226;2024-03-08T00:44:58;100484.59;;;-1.72;100.00
21644;BME280;10983;51.982;9.226;2024-03-08T00:47:26;100482.28;;;-1.75;100.00
21644;BME280;10983;51.982;9.226;2024-03-08T00:49:54;100476.66;;;-1.70;100.00
21644;BME280;10983;51.982;9.226;2024-03-08T00:52:22;100478.09;;;-1.95;100.00
21644;BME280;10983;51.982;9.226;2024-03-08T00:54:51;100470.59;;;-1.98;100.00
21644;BME280;10983;51.982;9.226;2024-03-08T00:57:18;100478.81;;;-1.93;100.00
21644;BME280;10983;51.982;9.226;2024-03-08T00:59:47;100468.38;;;-1.93;100.00
21644;BME280;10983;51.982;9.226;2024-03-08T01:02:16;100473.78;;;-2.04;100.00
21644;BME280;10983;51.982;9.226;2024-03-08T01:04:45;100459.94;;;-2.14;100.00
21644;BME280;10983;51.982;9.226;2024-03-08T01:07:13;100463.66;;;-2.25;100.00
21644;BME280;10983;51.982;9.226;2024-03-08T01:09:41;100459.19;;;-2.33;100.00
21644;BME280;10983;51.982;9.226;2024-03-08T01:12:08;100457.53;;;-2.34;100.00
21644;BME280;10983;51.982;9.226;2024-03-08T01:14:37;100460.78;;;-2.32;100.00
21644;BME280;10983;51.982;9.226;2024-03-08T01:17:04;100454.50;;;-2.29;100.00
21644;BME280;10983;51.982;9.226;2024-03-08T01:19:33;100438.97;;;-2.22;100.00
21644;BME280;10983;51.982;9.226;2024-03-08T01:22:01;100431.72;;;-2.18;100.00
21644;BME280;10983;51.982;9.226;2024-03-08T01:24:28;100430.25;;;-2.30;100.00
21644;BME280;10983;51.982;9.226;2024-03-08T01:26:55;100425.56;;;-2.26;100.00
21644;BME280;10983;51.982;9.226;2024-03-08T01:29:23;100417.59;;;-2.16;100.00
21644;BME280;10983;51.982;9.226;2024-03-08T01:31:51;100415.53;;;-2.12;100.00
21644;BME280;10983;51.982;9.226;2024-03-08T01:34:20;100417.47;;;-2.14;100.00
21644;BME280;10983;51.982;9.226;2024-03-08T01:36:50;100417.28;;;-2.03;100.00
21644;BME280;10983;51.982;9.226;2024-03-08T01:39:17;100400.50;;;-1.91;100.00
21644;BME280;10983;51.982;9.226;2024-03-08T01:41:45;100405.88;;;-1.93;100.00
21644;BME280;10983;51.982;9.226;2024-03-08T01:44:12;100398.75;;;-2.00;100.00
21644;BME280;10983;51.982;9.226;2024-03-08T01:46:44;100402.66;;;-2.14;100.00
21644;BME280;10983;51.982;9.226;2024-03-08T01:49:12;100387.56;;;-2.10;100.00
21644;BME280;10983;51.982;9.226;2024-03-08T01:51:40;100386.19;;;-2.05;100.00
21644;BME280;10983;51.982;9.226;2024-03-08T01:54:10;100386.19;;;-2.05;100.00
21644;BME280;10983;51.982;9.226;2024-03-08T01:56:39;100381.38;;;-2.00;100.00
21644;BME280;10983;51.982;9.226;2024-03-08T01:59:07;100388.03;;;-1.97;100.00
21644;BME280;10983;51.982;9.226;2024-03-08T02:01:35;100380.38;;;-1.99;100.00
21644;BME280;10983;51.982;9.226;2024-03-08T02:04:02;100380.13;;;-1.96;100.00
21644;BME280;10983;51.982;9.226;2024-03-08T02:06:32;100372.66;;;-1.91;100.00
21644;BME280;10983;51.982;9.226;2024-03-08T02:09:00;100372.72;;;-2.00;100.00
21644;BME280;10983;51.982;9.226;2024-03-08T02:11:33;100372.16;;;-1.94;100.00
21644;BME280;10983;51.982;9.226;2024-03-08T02:14:02;100372.16;;;-1.94;100.00
21644;BME280;10983;51.982;9.226;2024-03-08T02:16:32;100374.50;;;-1.74;100.00
21644;BME280;10983;51.982;9.226;2024-03-08T02:19:00;100372.44;;;-1.70;100.00
21644;BME280;10983;51.982;9.226;2024-03-08T02:21:29;100367.78;;;-1.76;100.00
21644;BME280;10983;51.982;9.226;2024-03-08T02:23:58;100365.59;;;-1.71;100.00
21644;BME280;10983;51.982;9.226;2024-03-08T02:26:27;100367.53;;;-1.83;100.00
21644;BME280;10983;51.982;9.226;2024-03-08T02:28:54;100365.75;;;-2.00;100.00
21644;BME280;10983;51.982;9.226;2024-03-08T02:31:22;100357.69;;;-2.06;100.00
21644;BME280;10983;51.982;9.226;2024-03-08T02:33:50;100361.19;;;-1.98;100.00
21644;BME280;10983;51.982;9.226;2024-03-08T02:36:17;100361.09;;;-1.79;100.00
21644;BME280;10983;51.982;9.226;2024-03-08T02:38:46;100355.00;;;-1.70;100.00
21644;BME280;10983;51.982;9.226;2024-03-08T02:41:14;100350.72;;;-1.27;100.00
21644;BME280;10983;51.982;9.226;2024-03-08T02:43:41;100346.53;;;-1.20;100.00
21644;BME280;10983;51.982;9.226;2024-03-08T02:46:10;100346.75;;;-1.13;100.00
21644;BME280;10983;51.982;9.226;2024-03-08T02:48:37;100351.75;;;-1.20;100.00
21644;BME280;10983;51.982;9.226;2024-03-08T02:51:06;100355.50;;;-1.22;100.00
21644;BME280;10983;51.982;9.226;2024-03-08T02:53:34;100364.66;;;-1.36;100.00
21644;BME280;10983;51.982;9.226;2024-03-08T02:56:03;100361.06;;;-1.35;100.00
21644;BME280;10983;51.982;9.226;2024-03-08T02:58:34;100367.53;;;-1.56;100.00
21644;BME280;10983;51.982;9.226;2024-03-08T03:01:02;100359.63;;;-1.64;100.00
21644;BME280;10983;51.982;9.226;2024-03-08T03:03:30;100361.09;;;-1.79;100.00
21644;BME280;10983;51.982;9.226;2024-03-08T03:05:58;100366.09;;;-1.95;100.00
21644;BME280;10983;51.982;9.226;2024-03-08T03:08:27;100363.44;;;-2.12;100.00
21644;BME280;10983;51.982;9.226;2024-03-08T03:10:54;100358.78;;;-2.09;100.00
21644;BME280;10983;51.982;9.226;2024-03-08T03:13:24;100356.19;;;-2.09;100.00
21644;BME280;10983;51.982;9.226;2024-03-08T03:15:52;100353.91;;;-2.21;100.00
21644;BME280;10983;51.982;9.226;2024-03-08T03:18:21;100354.31;;;-2.25;100.00
21644;BME280;10983;51.982;9.226;2024-03-08T03:20:50;100347.72;;;-2.20;100.00
21644;BME280;10983;51.982;9.226;2024-03-08T03:23:18;100348.44;;;-2.27;100.00
21644;BME280;10983;51.982;9.226;2024-03-08T03:25:47;100340.91;;;-2.30;100.00
21644;BME280;10983;51.982;9.226;2024-03-08T03:28:14;100341.22;;;-2.43;100.00
21644;BME280;10983;51.982;9.226;2024-03-08T03:30:45;100341.22;;;-2.43;100.00
21644;BME280;10983;51.982;9.226;2024-03-08T03:33:14;100340.41;;;-2.43;100.00
21644;BME280;10983;51.982;9.226;2024-03-08T03:35:43;100340.53;;;-2.35;100.00
21644;BME280;10983;51.982;9.226;2024-03-08T03:38:11;100341.94;;;-2.41;100.00
21644;BME280;10983;51.982;9.226;2024-03-08T03:40:40;100344.38;;;-2.39;100.00
21644;BME280;10983;51.982;9.226;2024-03-08T03:43:08;100339.66;;;-2.17;100.00
21644;BME280;10983;51.982;9.226;2024-03-08T03:45:39;100335.31;;;-1.82;100.00
21644;BME280;10983;51.982;9.226;2024-03-08T03:48:09;100326.28;;;-1.61;100.00
21644;BME280;10983;51.982;9.226;2024-03-08T03:50:38;100329.91;;;-1.54;100.00
21644;BME280;10983;51.982;9.226;2024-03-08T03:53:07;100319.13;;;-1.59;100.00
21644;BME280;10983;51.982;9.226;2024-03-08T03:55:37;100329.03;;;-1.62;100.00
21644;BME280;10983;51.982;9.226;2024-03-08T03:58:06;100314.34;;;-1.80;100.00
21644;BME280;10983;51.982;9.226;2024-03-08T04:00:33;100318.13;;;-1.75;100.00
21644;BME280;10983;51.982;9.226;2024-03-08T04:03:01;100320.50;;;-1.81;100.00
21644;BME280;10983;51.982;9.226;2024-03-08T04:05:30;100320.19;;;-1.69;100.00
21644;BME280;10983;51.982;9.226;2024-03-08T04:07:58;100323.66;;;-1.78;100.00
21644;BME280;10983;51.982;9.226;2024-03-08T04:10:27;100326.41;;;-1.79;100.00
21644;BME280;10983;51.982;9.226;2024-03-08T04:12:55;100317.59;;;-1.96;100.00
21644;BME280;10983;51.982;9.226;2024-03-08T04:15:23;100323.56;;;-2.13;100.00
21644;BME280;10983;51.982;9.226;2024-03-08T04:17:50;100331.84;;;-2.26;100.00
21644;BME280;10983;51.982;9.226;2024-03-08T04:20:19;100322.69;;;-2.30;100.00
21644;BME280;10983;51.982;9.226;2024-03-08T04:22:48;100323.78;;;-2.23;100.00
21644;BME280;10983;51.982;9.226;2024-03-08T04:25:16;100304.56;;;-2.23;100.00
21644;BME280;10983;51.982;9.226;2024-03-08T04:27:44;100301.00;;;-2.22;100.00
21644;BME280;10983;51.982;9.226;2024-03-08T04:30:12;100307.66;;;-2.36;100.00
21644;BME280;10983;51.982;9.226;2024-03-08T04:32:40;100311.75;;;-2.34;100.00
21644;BME280;10983;51.982;9.226;2024-03-08T04:35:09;100302.41;;;-2.27;100.00
21644;BME280;10983;51.982;9.226;2024-03-08T04:37:38;100305.28;;;-2.30;100.00
21644;BME280;10983;51.982;9.226;2024-03-08T04:40:08;100298.59;;;-2.32;100.00
21644;BME280;10983;51.982;9.226;2024-03-08T04:42:37;100295.69;;;-2.29;100.00
21644;BME280;10983;51.982;9.226;2024-03-08T04:45:06;100288.47;;;-2.09;100.00
21644;BME280;10983;51.982;9.226;2024-03-08T04:47:37;100284.47;;;-2.03;100.00
21644;BME280;10983;51.982;9.226;2024-03-08T04:50:06;100284.97;;;-2.17;100.00
21644;BME280;10983;51.982;9.226;2024-03-08T04:52:35;100282.13;;;-2.23;100.00
21644;BME280;10983;51.982;9.226;2024-03-08T04:55:03;100280.34;;;-2.06;100.00
21644;BME280;10983;51.982;9.226;2024-03-08T04:57:33;100277.91;;;-2.07;100.00
21644;BME280;10983;51.982;9.226;2024-03-08T05:00:01;100277.56;;;-2.22;100.00
21644;BME280;10983;51.982;9.226;2024-03-08T05:02:31;100276.41;;;-2.36;100.00
21644;BME280;10983;51.982;9.226;2024-03-08T05:04:58;100277.88;;;-2.24;100.00
21644;BME280;10983;51.982;9.226;2024-03-08T05:07:27;100273.81;;;-2.10;100.00
21644;BME280;10983;51.982;9.226;2024-03-08T05:09:54;100275.25;;;-2.24;100.00
21644;BME280;10983;51.982;9.226;2024-03-08T05:12:22;100265.47;;;-2.40;100.00
21644;BME280;10983;51.982;9.226;2024-03-08T05:14:51;100270.97;;;-2.43;100.00
21644;BME280;10983;51.982;9.226;2024-03-08T05:17:20;100266.97;;;-2.37;100.00
21644;BME280;10983;51.982;9.226;2024-03-08T05:19:47;100263.94;;;-2.33;100.00
21644;BME280;10983;51.982;9.226;2024-03-08T05:22:14;100266.44;;;-2.41;100.00
21644;BME280;10983;51.982;9.226;2024-03-08T05:24:42;100261.19;;;-2.58;100.00
21644;BME280;10983;51.982;9.226;2024-03-08T05:27:09;100263.94;;;-2.69;100.00
21644;BME280;10983;51.982;9.226;2024-03-08T05:29:37;100266.88;;;-2.81;100.00
21644;BME280;10983;51.982;9.226;2024-03-08T05:32:06;100267.28;;;-2.77;100.00
21644;BME280;10983;51.982;9.226;2024-03-08T05:34:34;100264.53;;;-2.75;100.00
21644;BME280;10983;51.982;9.226;2024-03-08T05:37:02;100251.22;;;-2.72;100.00
21644;BME280;10983;51.982;9.226;2024-03-08T05:39:29;100249.69;;;-2.65;100.00
21644;BME280;10983;51.982;9.226;2024-03-08T05:41:57;100248.69;;;-2.55;100.00
21644;BME280;10983;51.982;9.226;2024-03-08T05:44:24;100244.03;;;-2.24;100.00
21644;BME280;10983;51.982;9.226;2024-03-08T05:46:55;100248.84;;;-2.29;100.00
21644;BME280;10983;51.982;9.226;2024-03-08T05:49:23;100248.59;;;-2.36;100.00
21644;BME280;10983;51.982;9.226;2024-03-08T05:51:52;100235.38;;;-2.42;100.00
21644;BME280;10983;51.982;9.226;2024-03-08T05:54:21;100244.06;;;-2.34;100.00
21644;BME280;10983;51.982;9.226;2024-03-08T05:56:51;100242.53;;;-2.27;100.00
21644;BME280;10983;51.982;9.226;2024-03-08T05:59:19;100245.47;;;-2.39;100.00
21644;BME280;10983;51.982;9.226;2024-03-08T06:01:47;100243.16;;;-2.42;100.00
21644;BME280;10983;51.982;9.226;2024-03-08T06:04:15;100247.84;;;-2.46;100.00
21644;BME280;10983;51.982;9.226;2024-03-08T06:06:45;100246.28;;;-2.39;100.00
21644;BME280;10983;51.982;9.226;2024-03-08T06:09:17;100241.19;;;-2.31;100.00
21644;BME280;10983;51.982;9.226;2024-03-08T06:11:50;100237.47;;;-2.28;100.00
21644;BME280;10983;51.982;9.226;2024-03-08T06:14:17;100246.38;;;-2.31;100.00
21644;BME280;10983;51.982;9.226;2024-03-08T06:16:45;100235.41;;;-2.25;100.00
21644;BME280;10983;51.982;9.226;2024-03-08T06:19:13;100244.34;;;-2.10;100.00
21644;BME280;10983;51.982;9.226;2024-03-08T06:21:41;100239.06;;;-2.01;100.00
21644;BME280;10983;51.982;9.226;2024-03-08T06:24:10;100245.50;;;-1.78;100.00
21644;BME280;10983;51.982;9.226;2024-03-08T06:26:38;100242.66;;;-1.67;100.00
21644;BME280;10983;51.982;9.226;2024-03-08T06:29:06;100238.13;;;-1.65;100.00
21644;BME280;10983;51.982;9.226;2024-03-08T06:31:37;100238.84;;;-1.55;100.00
21644;BME280;10983;51.982;9.226;2024-03-08T06:34:05;100240.41;;;-1.45;100.00
21644;BME280;10983;51.982;9.226;2024-03-08T06:36:34;100245.34;;;-1.16;100.00
21644;BME280;10983;51.982;9.226;2024-03-08T06:39:01;100238.69;;;-0.86;100.00
21644;BME280;10983;51.982;9.226;2024-03-08T06:41:37;100247.59;;;-0.71;100.00
21644;BME280;10983;51.982;9.226;2024-03-08T06:44:05;100242.28;;;-0.54;100.00
21644;BME280;10983;51.982;9.226;2024-03-08T06:46:35;100245.75;;;-0.53;100.00
21644;BME280;10983;51.982;9.226;2024-03-08T06:49:02;100251.19;;;-0.31;100.00
21644;BME280;10983;51.982;9.226;2024-03-08T06:51:30;100249.19;;;-0.03;100.00
21644;BME280;10983;51.982;9.226;2024-03-08T06:53:58;100254.44;;;0.04;100.00
21644;BME280;10983;51.982;9.226;2024-03-08T06:56:26;100254.50;;;0.28;100.00
21644;BME280;10983;51.982;9.226;2024-03-08T06:58:55;100263.00;;;0.46;100.00
21644;BME280;10983;51.982;9.226;2024-03-08T07:01:22;100267.41;;;0.46;100.00
21644;BME280;10983;51.982;9.226;2024-03-08T07:03:50;100266.44;;;0.54;100.00
21644;BME280;10983;51.982;9.226;2024-03-08T07:06:19;100272.16;;;0.66;100.00
21644;BME280;10983;51.982;9.226;2024-03-08T07:08:46;100260.41;;;0.70;100.00
21644;BME280;10983;51.982;9.226;2024-03-08T07:11:15;100278.03;;;0.84;100.00
21644;BME280;10983;51.982;9.226;2024-03-08T07:13:45;100269.22;;;0.85;100.00
21644;BME280;10983;51.982;9.226;2024-03-08T07:16:15;100280.03;;;0.98;100.00
21644;BME280;10983;51.982;9.226;2024-03-08T07:18:42;100277.38;;;1.21;100.00
21644;BME280;10983;51.982;9.226;2024-03-08T07:21:10;100286.16;;;1.52;100.00
21644;BME280;10983;51.982;9.226;2024-03-08T07:23:38;100294.28;;;1.65;100.00
21644;BME280;10983;51.982;9.226;2024-03-08T07:26:29;100300.34;;;1.66;100.00
21644;BME280;10983;51.982;9.226;2024-03-08T07:28:58;100305.06;;;1.70;100.00
21644;BME280;10983;51.982;9.226;2024-03-08T07:31:28;100306.53;;;1.80;100.00
21644;BME280;10983;51.982;9.226;2024-03-08T07:34:10;100314.16;;;1.98;100.00
21644;BME280;10983;51.982;9.226;2024-03-08T07:36:39;100317.38;;;2.08;100.00
21644;BME280;10983;51.982;9.226;2024-03-08T07:39:06;100323.59;;;2.15;100.00
21644;BME280;10983;51.982;9.226;2024-03-08T07:41:38;100323.19;;;2.25;100.00
21644;BME280;10983;51.982;9.226;2024-03-08T07:44:06;100328.75;;;2.30;100.00
21644;BME280;10983;51.982;9.226;2024-03-08T07:46:35;100347.00;;;2.46;100.00
21644;BME280;10983;51.982;9.226;2024-03-08T07:49:07;100342.84;;;2.60;100.00
21644;BME280;10983;51.982;9.226;2024-03-08T07:51:37;100352.44;;;2.75;100.00
21644;BME280;10983;51.982;9.226;2024-03-08T07:54:06;100350.31;;;2.93;100.00
21644;BME280;10983;51.982;9.226;2024-03-08T07:56:35;100367.19;;;3.21;100.00
21644;BME280;10983;51.982;9.226;2024-03-08T07:59:04;100366.81;;;3.24;100.00
21644;BME280;10983;51.982;9.226;2024-03-08T08:01:32;100367.13;;;3.29;100.00
21644;BME280;10983;51.982;9.226;2024-03-08T08:04:01;100384.69;;;3.50;100.00
21644;BME280;10983;51.982;9.226;2024-03-08T08:06:29;100386.91;;;3.76;100.00
21644;BME280;10983;51.982;9.226;2024-03-08T08:08:58;100400.97;;;3.83;100.00
21644;BME280;10983;51.982;9.226;2024-03-08T08:11:26;100411.13;;;4.00;100.00
21644;BME280;10983;51.982;9.226;2024-03-08T08:13:55;100419.84;;;4.29;100.00
21644;BME280;10983;51.982;9.226;2024-03-08T08:16:22;100435.78;;;4.42;100.00
21644;BME280;10983;51.982;9.226;2024-03-08T08:18:52;100439.34;;;4.49;100.00
21644;BME280;10983;51.982;9.226;2024-03-08T08:21:23;100444.16;;;4.60;100.00
21644;BME280;10983;51.982;9.226;2024-03-08T08:23:52;100456.66;;;4.72;100.00
21644;BME280;10983;51.982;9.226;2024-03-08T08:26:21;100460.47;;;4.70;100.00
21644;BME280;10983;51.982;9.226;2024-03-08T08:28:48;100462.00;;;4.93;100.00
21644;BME280;10983;51.982;9.226;2024-03-08T08:31:16;100470.38;;;5.17;100.00
21644;BME280;10983;51.982;9.226;2024-03-08T08:33:43;100468.63;;;5.24;100.00
21644;BME280;10983;51.982;9.226;2024-03-08T08:36:14;100479.19;;;5.45;100.00
21644;BME280;10983;51.982;9.226;2024-03-08T08:38:47;100491.53;;;5.45;100.00
21644;BME280;10983;51.982;9.226;2024-03-08T08:41:14;100486.41;;;5.57;100.00
21644;BME280;10983;51.982;9.226;2024-03-08T08:43:44;100491.59;;;5.86;100.00
21644;BME280;10983;51.982;9.226;2024-03-08T08:46:28;100496.53;;;5.96;100.00
21644;BME280;10983;51.982;9.226;2024-03-08T08:48:55;100506.56;;;6.07;100.00
21644;BME280;10983;51.982;9.226;2024-03-08T08:51:23;100510.19;;;6.06;100.00
21644;BME280;10983;51.982;9.226;2024-03-08T08:53:55;100505.44;;;6.15;100.00
21644;BME280;10983;51.982;9.226;2024-03-08T08:56:22;100507.53;;;6.26;100.00
21644;BME280;10983;51.982;9.226;2024-03-08T08:58:52;100503.22;;;6.46;100.00
21644;BME280;10983;51.982;9.226;2024-03-08T09:01:20;100502.25;;;6.60;100.00
21644;BME280;10983;51.982;9.226;2024-03-08T09:03:47;100509.91;;;6.82;100.00
21644;BME280;10983;51.982;9.226;2024-03-08T09:06:16;100517.13;;;7.01;100.00
21644;BME280;10983;51.982;9.226;2024-03-08T09:08:44;100513.63;;;6.94;100.00
21644;BME280;10983;51.982;9.226;2024-03-08T09:11:13;100512.53;;;7.23;100.00
21644;BME280;10983;51.982;9.226;2024-03-08T09:13:44;100518.22;;;7.32;100.00
21644;BME280;10983;51.982;9.226;2024-03-08T09:16:12;100511.97;;;7.40;100.00
21644;BME280;10983;51.982;9.226;2024-03-08T09:18:40;100518.28;;;7.45;100.00
21644;BME280;10983;51.982;9.226;2024-03-08T09:21:08;100520.16;;;7.51;100.00
21644;BME280;10983;51.982;9.226;2024-03-08T09:23:37;100523.41;;;7.60;100.00
21644;BME280;10983;51.982;9.226;2024-03-08T09:26:04;100525.47;;;7.71;100.00
21644;BME280;10983;51.982;9.226;2024-03-08T09:28:49;100524.03;;;7.68;100.00
21644;BME280;10983;51.982;9.226;2024-03-08T09:31:17;100524.00;;;7.62;100.00
21644;BME280;10983;51.982;9.226;2024-03-08T09:33:44;100515.47;;;7.60;100.00
21644;BME280;10983;51.982;9.226;2024-03-08T09:36:13;100508.59;;;7.78;100.00
21644;BME280;10983;51.982;9.226;2024-03-08T09:38:40;100509.59;;;7.96;100.00
21644;BME280;10983;51.982;9.226;2024-03-08T09:41:10;100506.38;;;8.07;100.00
21644;BME280;10983;51.982;9.226;2024-03-08T09:43:40;100513.66;;;7.92;100.00
21644;BME280;10983;51.982;9.226;2024-03-08T09:46:10;100511.44;;;8.02;100.00
21644;BME280;10983;51.982;9.226;2024-03-08T09:48:38;100505.78;;;8.25;100.00
21644;BME280;10983;51.982;9.226;2024-03-08T09:51:08;100497.81;;;8.44;100.00
21644;BME280;10983;51.982;9.226;2024-03-08T09:53:39;100496.69;;;8.84;100.00
21644;BME280;10983;51.982;9.226;2024-03-08T09:56:07;100493.78;;;9.04;100.00
21644;BME280;10983;51.982;9.226;2024-03-08T09:58:35;100498.03;;;9.49;100.00
21644;BME280;10983;51.982;9.226;2024-03-08T10:01:22;100493.94;;;9.77;100.00
21644;BME280;10983;51.982;9.226;2024-03-08T10:03:49;100498.28;;;10.03;100.00
21644;BME280;10983;51.982;9.226;2024-03-08T10:06:22;100492.78;;;9.98;100.00
21644;BME280;10983;51.982;9.226;2024-03-08T10:08:50;100490.44;;;10.14;100.00
21644;BME280;10983;51.982;9.226;2024-03-08T10:11:19;100487.06;;;10.85;100.00
21644;BME280;10983;51.982;9.226;2024-03-08T10:13:48;100487.34;;;10.95;100.00
21644;BME280;10983;51.982;9.226;2024-03-08T10:16:15;100480.75;;;11.15;100.00
21644;BME280;10983;51.982;9.226;2024-03-08T10:18:46;100476.50;;;11.25;100.00
21644;BME280;10983;51.982;9.226;2024-03-08T10:21:13;100478.41;;;11.54;100.00
21644;BME280;10983;51.982;9.226;2024-03-08T10:23:42;100466.69;;;11.26;100.00
21644;BME280;10983;51.982;9.226;2024-03-08T10:26:10;100466.22;;;11.29;100.00
21644;BME280;10983;51.982;9.226;2024-03-08T10:28:41;100460.91;;;11.58;100.00
21644;BME280;10983;51.982;9.226;2024-03-08T10:31:09;100459.09;;;11.12;100.00
21644;BME280;10983;51.982;9.226;2024-03-08T10:33:37;100454.00;;;11.80;100.00
21644;BME280;10983;51.982;9.226;2024-03-08T10:36:08;100456.28;;;12.06;100.00
21644;BME280;10983;51.982;9.226;2024-03-08T10:38:36;100449.97;;;12.80;100.00
21644;BME280;10983;51.982;9.226;2024-03-08T10:41:06;100441.19;;;12.57;100.00
21644;BME280;10983;51.982;9.226;2024-03-08T10:43:57;100442.28;;;13.50;100.00
21644;BME280;10983;51.982;9.226;2024-03-08T10:46:30;100446.56;;;13.35;100.00
21644;BME280;10983;51.982;9.226;2024-03-08T10:49:03;100432.78;;;13.87;100.00
21644;BME280;10983;51.982;9.226;2024-03-08T10:51:35;100430.75;;;14.64;100.00
21644;BME280;10983;51.982;9.226;2024-03-08T10:54:06;100427.88;;;14.50;100.00
21644;BME280;10983;51.982;9.226;2024-03-08T10:56:38;100424.19;;;14.72;100.00
21644;BME280;10983;51.982;9.226;2024-03-08T10:59:07;100409.66;;;15.11;100.00
21644;BME280;10983;51.982;9.226;2024-03-08T11:01:35;100397.50;;;15.51;100.00
21644;BME280;10983;51.982;9.226;2024-03-08T11:04:04;100406.50;;;14.71;100.00
21644;BME280;10983;51.982;9.226;2024-03-08T11:06:42;100397.03;;;15.32;100.00
21644;BME280;10983;51.982;9.226;2024-03-08T11:09:29;100386.25;;;15.27;100.00
21644;BME280;10983;51.982;9.226;2024-03-08T11:12:21;100383.47;;;16.11;100.00
21644;BME280;10983;51.982;9.226;2024-03-08T11:14:53;100380.13;;;16.82;100.00
21644;BME280;10983;51.982;9.226;2024-03-08T11:17:39;100370.34;;;17.27;100.00
21644;BME280;10983;51.982;9.226;2024-03-08T11:20:12;100366.59;;;17.82;100.00
21644;BME280;10983;51.982;9.226;2024-03-08T11:22:49;100360.66;;;17.95;100.00
21644;BME280;10983;51.982;9.226;2024-03-08T11:25:34;100357.03;;;18.64;100.00
21644;BME280;10983;51.982;9.226;2024-03-08T11:28:10;100352.63;;;17.60;100.00
21644;BME280;10983;51.982;9.226;2024-03-08T11:33:31;100348.59;;;17.63;100.00
21644;BME280;10983;51.982;9.226;2024-03-08T11:36:02;100342.69;;;17.76;100.00
21644;BME280;10983;51.982;9.226;2024-03-08T11:38:40;100345.31;;;18.20;100.00
21644;BME280;10983;51.982;9.226;2024-03-08T11:41:07;100336.75;;;17.54;100.00
21644;BME280;10983;51.982;9.226;2024-03-08T11:43:35;100339.72;;;17.62;100.00
21644;BME280;10983;51.982;9.226;2024-03-08T11:46:08;100338.59;;;17.78;100.00
21644;BME280;10983;51.982;9.226;2024-03-08T11:48:39;100335.69;;;17.55;100.00
21644;BME280;10983;51.982;9.226;2024-03-08T11:51:08;100337.25;;;17.21;100.00
21644;BME280;10983;51.982;9.226;2024-03-08T11:53:39;100334.31;;;17.38;100.00
21644;BME280;10983;51.982;9.226;2024-03-08T11:56:13;100324.09;;;17.44;100.00
21644;BME280;10983;51.982;9.226;2024-03-08T11:58:42;100327.34;;;17.46;100.00
21644;BME280;10983;51.982;9.226;2024-03-08T12:01:10;100320.34;;;17.60;100.00
21644;BME280;10983;51.982;9.226;2024-03-08T12:03:41;100308.78;;;17.80;100.00
21644;BME280;10983;51.982;9.226;2024-03-08T12:06:09;100303.59;;;18.18;100.00
21644;BME280;10983;51.982;9.226;2024-03-08T12:08:38;100298.56;;;17.62;100.00
21644;BME280;10983;51.982;9.226;2024-03-08T12:11:12;100286.00;;;18.45;100.00
21644;BME280;10983;51.982;9.226;2024-03-08T12:13:41;100282.03;;;19.80;100.00
21644;BME280;10983;51.982;9.226;2024-03-08T12:16:09;100265.56;;;20.33;100.00
21644;BME280;10983;51.982;9.226;2024-03-08T12:18:38;100269.34;;;19.24;100.00
21644;BME280;10983;51.982;9.226;2024-03-08T12:21:07;100289.69;;;17.56;100.00
21644;BME280;10983;51.982;9.226;2024-03-08T12:23:35;100281.84;;;16.90;100.00
21644;BME280;10983;51.982;9.226;2024-03-08T12:26:11;100280.78;;;17.11;100.00
21644;BME280;10983;51.982;9.226;2024-03-08T12:28:40;100265.22;;;17.43;100.00
21644;BME280;10983;51.982;9.226;2024-03-08T12:31:11;100268.97;;;17.42;100.00
21644;BME280;10983;51.982;9.226;2024-03-08T12:33:48;100254.06;;;18.09;100.00
21644;BME280;10983;51.982;9.226;2024-03-08T12:36:18;100244.66;;;18.06;100.00
21644;BME280;10983;51.982;9.226;2024-03-08T12:38:47;100240.47;;;18.87;100.00
21644;BME280;10983;51.982;9.226;2024-03-08T12:41:16;100237.97;;;20.13;100.00
21644;BME280;10983;51.982;9.226;2024-03-08T12:43:45;100218.88;;;20.88;100.00
21644;BME280;10983;51.982;9.226;2024-03-08T12:46:15;100216.94;;;20.70;100.00
21644;BME280;10983;51.982;9.226;2024-03-08T12:48:44;100214.50;;;19.34;100.00
21644;BME280;10983;51.982;9.226;2024-03-08T12:51:14;100221.00;;;19.00;100.00
21644;BME280;10983;51.982;9.226;2024-03-08T12:53:42;100227.84;;;18.39;100.00
21644;BME280;10983;51.982;9.226;2024-03-08T12:56:12;100222.00;;;18.12;100.00